createdAt,value
2019-04-29T00:01:33.378Z,6.90
2019-04-29T00:03:26.274Z,6.80
2019-04-29T00:05:19.876Z,6.90
2019-04-29T00:07:13.284Z,6.90
2019-04-29T00:09:10.576Z,7.00
2019-04-29T00:11:03.899Z,7.00
2019-04-29T00:12:57.286Z,7.00
2019-04-29T00:15:03.107Z,7.10
2019-04-29T00:17:06.973Z,7.10
2019-04-29T00:19:04.491Z,7.00
2019-04-29T00:20:57.769Z,7.00
2019-04-29T00:22:50.985Z,7.10
2019-04-29T00:24:43.686Z,7.10
2019-04-29T00:26:36.422Z,7.20
2019-04-29T00:28:28.796Z,7.10
2019-04-29T00:30:22.653Z,7.20
2019-04-29T00:32:15.608Z,7.20
2019-04-29T00:34:08.912Z,7.20
2019-04-29T00:36:01.991Z,7.20
2019-04-29T00:37:59.919Z,7.20
2019-04-29T00:40:03.948Z,7.10
2019-04-29T00:42:00.873Z,7.00
2019-04-29T00:43:58.718Z,7.00
2019-04-29T00:45:52.074Z,7.00
2019-04-29T00:47:44.229Z,6.90
2019-04-29T00:49:38.566Z,6.80
2019-04-29T00:51:32.692Z,6.80
2019-04-29T00:53:25.031Z,6.80
2019-04-29T00:55:26.123Z,6.80
2019-04-29T00:57:20.586Z,6.80
2019-04-29T00:59:12.963Z,6.90
2019-04-29T01:01:11.096Z,7.00
2019-04-29T01:03:04.399Z,7.00
2019-04-29T01:04:57.319Z,7.00
2019-04-29T01:06:50.620Z,7.00
2019-04-29T01:08:43.773Z,7.00
2019-04-29T01:10:36.049Z,7.10
2019-04-29T01:12:28.882Z,7.10
2019-04-29T01:14:21.705Z,7.10
2019-04-29T01:16:14.705Z,7.00
2019-04-29T01:18:07.742Z,7.00
2019-04-29T01:20:00.995Z,6.90
2019-04-29T01:21:55.528Z,6.90
2019-04-29T01:23:47.748Z,7.00
2019-04-29T01:25:42.347Z,7.10
2019-04-29T01:27:36.733Z,7.00
2019-04-29T01:29:31.544Z,7.00
2019-04-29T01:31:26.488Z,7.00
2019-04-29T01:33:19.608Z,6.90
2019-04-29T01:35:12.875Z,6.90
2019-04-29T01:37:05.127Z,6.90
2019-04-29T01:38:59.816Z,6.90
2019-04-29T01:41:13.078Z,6.90
2019-04-29T01:43:06.015Z,7.00
2019-04-29T01:45:00.260Z,7.00
2019-04-29T01:46:53.422Z,6.90
2019-04-29T01:48:45.673Z,7.00
2019-04-29T01:50:38.684Z,7.00
2019-04-29T01:52:31.576Z,7.00
2019-04-29T01:54:24.419Z,7.00
2019-04-29T01:56:16.721Z,7.00
2019-04-29T01:58:09.648Z,7.00
2019-04-29T02:00:03.011Z,7.00
2019-04-29T02:01:56.230Z,7.00
2019-04-29T02:03:49.101Z,7.00
2019-04-29T02:05:41.510Z,7.00
2019-04-29T02:07:34.683Z,7.00
2019-04-29T02:09:29.881Z,7.00
2019-04-29T02:11:23.542Z,7.00
2019-04-29T02:13:16.859Z,7.00
2019-04-29T02:15:09.899Z,6.90
2019-04-29T02:17:02.647Z,7.00
2019-04-29T02:18:56.096Z,7.10
2019-04-29T02:20:49.337Z,7.20
2019-04-29T02:22:55.948Z,7.20
2019-04-29T02:24:53.498Z,7.10
2019-04-29T02:26:46.581Z,7.10
2019-04-29T02:28:39.876Z,7.10
2019-04-29T02:30:41.008Z,7.10
2019-04-29T02:32:34.062Z,7.00
2019-04-29T02:34:26.363Z,7.10
2019-04-29T02:36:19.418Z,7.00
2019-04-29T02:38:14.510Z,6.90
2019-04-29T02:40:09.238Z,7.00
2019-04-29T02:42:20.473Z,7.00
2019-04-29T02:44:13.841Z,7.10
2019-04-29T02:46:07.166Z,7.00
2019-04-29T02:47:59.875Z,7.10
2019-04-29T02:49:53.297Z,7.00
2019-04-29T02:51:48.359Z,6.90
2019-04-29T02:53:41.668Z,7.00
2019-04-29T02:55:36.197Z,7.00
2019-04-29T02:57:31.048Z,7.00
2019-04-29T02:59:44.126Z,7.00
2019-04-29T03:01:38.948Z,7.00
2019-04-29T03:03:33.527Z,7.00
2019-04-29T03:05:28.348Z,6.90
2019-04-29T03:07:22.132Z,6.90
2019-04-29T03:09:15.395Z,6.90
2019-04-29T03:11:07.828Z,6.90
2019-04-29T03:13:00.745Z,6.90
2019-04-29T03:14:55.049Z,7.00
2019-04-29T03:16:48.070Z,6.80
2019-04-29T03:18:42.401Z,6.80
2019-04-29T03:20:43.107Z,6.80
2019-04-29T03:22:38.396Z,6.80
2019-04-29T03:24:31.509Z,6.80
2019-04-29T03:26:24.716Z,6.80
2019-04-29T03:28:17.423Z,6.80
2019-04-29T03:30:10.879Z,6.90
2019-04-29T03:32:03.876Z,6.90
2019-04-29T03:33:56.848Z,6.90
2019-04-29T03:35:49.198Z,6.80
2019-04-29T03:37:42.362Z,6.90
2019-04-29T03:39:35.577Z,6.80
2019-04-29T03:41:28.902Z,6.90
2019-04-29T03:43:21.288Z,6.80
2019-04-29T03:45:14.066Z,6.70
2019-04-29T03:47:07.201Z,6.70
2019-04-29T03:49:00.109Z,6.60
2019-04-29T03:50:52.409Z,6.60
2019-04-29T03:52:45.650Z,6.50
2019-04-29T03:54:38.655Z,6.30
2019-04-29T03:56:30.931Z,6.30
2019-04-29T03:58:24.829Z,6.30
2019-04-29T04:00:18.639Z,6.30
2019-04-29T04:02:16.060Z,6.30
2019-04-29T04:04:11.174Z,6.20
2019-04-29T04:06:05.825Z,6.20
2019-04-29T04:08:03.904Z,6.20
2019-04-29T04:09:57.016Z,6.20
2019-04-29T04:11:50.397Z,6.20
2019-04-29T04:13:43.292Z,6.10
2019-04-29T04:15:36.508Z,6.10
2019-04-29T04:17:43.257Z,6.10
2019-04-29T04:19:36.486Z,6.10
2019-04-29T04:21:29.535Z,6.10
2019-04-29T04:23:22.919Z,6.10
2019-04-29T04:25:19.128Z,6.10
2019-04-29T04:27:12.194Z,6.00
2019-04-29T04:29:05.461Z,6.00
2019-04-29T04:30:57.769Z,6.10
2019-04-29T04:32:50.866Z,6.20
2019-04-29T04:34:44.372Z,6.30
2019-04-29T04:36:37.364Z,6.40
2019-04-29T04:38:30.663Z,6.50
2019-04-29T04:40:28.502Z,6.40
2019-04-29T04:42:21.478Z,6.50
2019-04-29T04:44:13.704Z,6.50
2019-04-29T04:46:06.782Z,6.60
2019-04-29T04:47:59.576Z,6.60
2019-04-29T04:49:53.841Z,6.60
2019-04-29T04:51:46.970Z,6.70
2019-04-29T04:53:40.104Z,6.70
2019-04-29T04:55:34.788Z,6.80
2019-04-29T04:57:27.628Z,6.90
2019-04-29T04:59:21.385Z,6.90
2019-04-29T05:01:14.186Z,6.90
2019-04-29T05:03:07.783Z,7.00
2019-04-29T05:05:00.843Z,7.00
2019-04-29T05:06:55.187Z,6.90
2019-04-29T05:08:49.562Z,7.00
2019-04-29T05:10:42.889Z,7.00
2019-04-29T05:12:36.105Z,7.00
2019-04-29T05:14:28.933Z,7.10
2019-04-29T05:16:22.114Z,7.10
2019-04-29T05:18:15.192Z,7.20
2019-04-29T05:20:08.547Z,7.20
2019-04-29T05:22:03.171Z,7.30
2019-04-29T05:23:55.414Z,7.30
2019-04-29T05:25:48.128Z,7.30
2019-04-29T05:27:40.906Z,7.40
2019-04-29T05:29:33.312Z,7.50
2019-04-29T05:31:26.330Z,7.50
2019-04-29T05:33:19.746Z,7.50
2019-04-29T05:35:24.795Z,7.40
2019-04-29T05:37:20.280Z,7.30
2019-04-29T05:39:14.965Z,7.30
2019-04-29T05:41:08.053Z,7.30
2019-04-29T05:43:01.264Z,7.30
2019-04-29T05:44:58.877Z,7.40
2019-04-29T05:46:59.275Z,7.50
2019-04-29T05:48:52.436Z,7.50
2019-04-29T05:50:47.587Z,7.50
2019-04-29T05:52:58.048Z,7.50
2019-04-29T05:54:51.267Z,7.50
2019-04-29T05:56:43.618Z,7.50
2019-04-29T05:58:37.810Z,7.40
2019-04-29T06:00:31.981Z,7.40
2019-04-29T06:02:33.181Z,7.50
2019-04-29T06:04:19.586Z,7.50
2019-04-29T06:06:12.357Z,7.40
2019-04-29T06:08:05.908Z,7.40
2019-04-29T06:09:58.278Z,7.30
2019-04-29T06:11:51.208Z,7.30
2019-04-29T06:13:44.114Z,7.30
2019-04-29T06:15:37.466Z,7.30
2019-04-29T06:17:30.540Z,7.40
2019-04-29T06:19:22.763Z,8.10
2019-04-29T06:21:15.463Z,8.50
2019-04-29T06:23:08.728Z,8.50
2019-04-29T06:25:01.097Z,8.40
2019-04-29T06:26:54.364Z,8.40
2019-04-29T06:28:46.631Z,8.30
2019-04-29T06:30:40.643Z,8.70
2019-04-29T06:32:34.272Z,8.80
2019-04-29T06:34:27.440Z,8.90
2019-04-29T06:36:20.454Z,8.80
2019-04-29T06:38:13.843Z,8.80
2019-04-29T06:40:08.035Z,9.20
2019-04-29T06:42:01.321Z,8.80
2019-04-29T06:43:56.144Z,8.30
2019-04-29T06:45:50.661Z,8.20
2019-04-29T06:47:42.947Z,8.00
2019-04-29T06:49:36.126Z,8.00
2019-04-29T06:51:28.339Z,7.80
2019-04-29T06:53:21.705Z,7.70
2019-04-29T06:55:16.424Z,7.70
2019-04-29T06:57:10.309Z,7.60
2019-04-29T06:59:03.323Z,7.60
2019-04-29T07:01:01.034Z,7.60
2019-04-29T07:02:51.118Z,7.50
2019-04-29T07:04:44.175Z,7.50
2019-04-29T07:06:36.531Z,7.30
2019-04-29T07:08:29.896Z,7.30
2019-04-29T07:10:27.091Z,7.20
2019-04-29T07:12:18.234Z,7.10
2019-04-29T07:14:11.684Z,7.10
2019-04-29T07:16:04.983Z,7.20
2019-04-29T07:17:58.224Z,7.20
2019-04-29T07:19:51.559Z,7.10
2019-04-29T07:21:47.000Z,7.10
2019-04-29T07:23:39.773Z,7.00
2019-04-29T07:25:33.149Z,7.10
2019-04-29T07:27:27.809Z,7.20
2019-04-29T07:29:21.487Z,7.20
2019-04-29T07:31:15.871Z,7.20
2019-04-29T07:33:09.125Z,7.20
2019-04-29T07:35:05.894Z,7.30
2019-04-29T07:36:58.024Z,7.30
2019-04-29T07:38:56.319Z,7.30
2019-04-29T07:40:46.573Z,7.30
2019-04-29T07:42:39.435Z,7.40
2019-04-29T07:44:43.710Z,7.40
2019-04-29T07:46:55.137Z,7.40
2019-04-29T07:48:30.557Z,7.50
2019-04-29T07:50:26.627Z,7.50
2019-04-29T07:52:18.880Z,7.60
2019-04-29T07:54:15.877Z,7.80
2019-04-29T07:56:06.790Z,7.80
2019-04-29T07:58:00.880Z,7.90
2019-04-29T07:59:54.063Z,8.10
2019-04-29T08:01:46.952Z,8.20
2019-04-29T08:03:39.181Z,8.20
2019-04-29T08:05:32.459Z,8.30
2019-04-29T08:07:26.400Z,8.20
2019-04-29T08:09:19.619Z,8.20
2019-04-29T08:11:13.359Z,8.30
2019-04-29T08:13:06.816Z,8.30
2019-04-29T08:15:07.533Z,8.50
2019-04-29T08:16:55.811Z,8.60
2019-04-29T08:18:49.479Z,8.50
2019-04-29T08:20:44.258Z,8.50
2019-04-29T08:22:37.320Z,8.70
2019-04-29T08:24:30.200Z,8.80
2019-04-29T08:26:22.492Z,8.80
2019-04-29T08:28:15.382Z,9.00
2019-04-29T08:30:11.238Z,9.10
2019-04-29T08:32:03.850Z,9.10
2019-04-29T08:33:56.769Z,9.20
2019-04-29T08:35:50.122Z,9.10
2019-04-29T08:37:43.537Z,8.90
2019-04-29T08:39:36.746Z,9.00
2019-04-29T08:41:31.394Z,9.00
2019-04-29T08:43:41.492Z,9.10
2019-04-29T08:45:40.588Z,9.00
2019-04-29T08:47:41.279Z,9.10
2019-04-29T08:49:34.103Z,9.40
2019-04-29T08:51:27.408Z,9.70
2019-04-29T08:53:20.284Z,9.80
2019-04-29T08:55:14.372Z,9.90
2019-04-29T08:57:07.644Z,9.90
2019-04-29T08:59:00.954Z,9.80
2019-04-29T09:00:55.756Z,9.80
2019-04-29T09:02:49.387Z,9.80
2019-04-29T09:04:53.313Z,9.80
2019-04-29T09:06:37.836Z,9.70
2019-04-29T09:08:32.829Z,9.50
2019-04-29T09:10:25.043Z,9.30
2019-04-29T09:12:23.602Z,9.30
2019-04-29T09:14:13.832Z,9.30
2019-04-29T09:16:06.171Z,9.30
2019-04-29T09:17:58.999Z,9.30
2019-04-29T09:19:51.434Z,9.50
2019-04-29T09:21:46.128Z,9.90
2019-04-29T09:23:39.062Z,10.10
2019-04-29T09:25:35.667Z,10.30
2019-04-29T09:27:28.656Z,10.50
2019-04-29T09:29:29.742Z,10.70
2019-04-29T09:31:22.881Z,11.00
2019-04-29T09:33:16.555Z,11.00
2019-04-29T09:35:10.262Z,11.10
2019-04-29T09:37:03.352Z,10.90
2019-04-29T09:38:57.695Z,10.90
2019-04-29T09:40:54.496Z,10.50
2019-04-29T09:42:58.357Z,10.30
2019-04-29T09:45:05.273Z,10.10
2019-04-29T09:46:59.021Z,9.90
2019-04-29T09:48:52.256Z,9.90
2019-04-29T09:50:46.544Z,9.80
2019-04-29T09:52:39.513Z,9.60
2019-04-29T09:54:32.326Z,9.60
2019-04-29T09:56:25.644Z,9.60
2019-04-29T09:58:18.892Z,9.50
2019-04-29T10:00:31.239Z,9.50
2019-04-29T10:02:30.863Z,9.50
2019-04-29T10:04:25.525Z,9.60
2019-04-29T10:06:20.095Z,9.80
2019-04-29T10:08:13.160Z,9.70
2019-04-29T10:10:07.931Z,9.60
2019-04-29T10:12:01.501Z,9.70
2019-04-29T10:13:54.017Z,9.70
2019-04-29T10:15:55.954Z,9.80
2019-04-29T10:17:55.662Z,10.10
2019-04-29T10:19:52.909Z,10.20
2019-04-29T10:21:45.868Z,10.30
2019-04-29T10:23:38.160Z,10.50
2019-04-29T10:25:31.048Z,10.70
2019-04-29T10:27:24.056Z,10.80
2019-04-29T10:29:20.251Z,11.00
2019-04-29T10:31:15.367Z,11.20
2019-04-29T10:33:08.384Z,11.20
2019-04-29T10:35:03.598Z,11.10
2019-04-29T10:36:57.475Z,11.10
2019-04-29T10:38:51.896Z,11.30
2019-04-29T10:41:04.628Z,11.10
2019-04-29T10:43:15.396Z,10.90
2019-04-29T10:45:10.895Z,11.00
2019-04-29T10:47:12.127Z,10.90
2019-04-29T10:49:07.157Z,10.60
2019-04-29T10:51:00.974Z,10.30
2019-04-29T10:52:56.955Z,10.00
2019-04-29T10:54:51.672Z,9.70
2019-04-29T10:56:45.204Z,9.60
2019-04-29T10:58:38.228Z,9.40
2019-04-29T11:00:57.246Z,9.40
2019-04-29T11:02:49.561Z,9.30
2019-04-29T11:04:44.844Z,9.40
2019-04-29T11:06:38.143Z,9.40
2019-04-29T11:08:38.176Z,9.50
2019-04-29T11:10:31.943Z,9.40
2019-04-29T11:12:25.425Z,9.60
2019-04-29T11:14:18.601Z,9.60
2019-04-29T11:16:13.001Z,9.50
2019-04-29T11:18:06.743Z,9.50
2019-04-29T11:19:59.912Z,9.30
2019-04-29T11:21:53.136Z,9.30
2019-04-29T11:23:56.541Z,9.10
2019-04-29T11:26:10.331Z,8.80
2019-04-29T11:28:03.315Z,8.60
2019-04-29T11:29:58.557Z,8.40
2019-04-29T11:31:55.794Z,8.20
2019-04-29T11:33:56.446Z,8.30
2019-04-29T11:35:59.132Z,8.30
2019-04-29T11:37:54.951Z,8.30
2019-04-29T11:39:50.354Z,8.40
2019-04-29T11:41:41.886Z,8.60
2019-04-29T11:43:35.386Z,8.80
2019-04-29T11:45:28.557Z,9.00
2019-04-29T11:47:25.142Z,9.10
2019-04-29T11:49:18.218Z,9.40
2019-04-29T11:51:18.674Z,9.70
2019-04-29T11:53:13.388Z,9.90
2019-04-29T11:55:07.782Z,10.10
2019-04-29T11:57:01.250Z,10.20
2019-04-29T11:58:55.257Z,10.30
2019-04-29T12:01:03.954Z,10.40
2019-04-29T12:02:56.721Z,10.40
2019-04-29T12:04:51.502Z,10.20
2019-04-29T12:06:44.784Z,10.10
2019-04-29T12:08:37.948Z,9.80
2019-04-29T12:10:31.821Z,9.60
2019-04-29T12:12:24.978Z,9.30
2019-04-29T12:14:22.776Z,9.20
2019-04-29T12:16:29.866Z,9.20
2019-04-29T12:18:24.595Z,9.20
2019-04-29T12:20:19.231Z,9.30
2019-04-29T12:22:26.820Z,9.40
2019-04-29T12:24:08.341Z,9.50
2019-04-29T12:26:03.103Z,9.60
2019-04-29T12:28:01.390Z,9.70
2019-04-29T12:29:54.311Z,10.00
2019-04-29T12:31:51.034Z,10.10
2019-04-29T12:33:49.276Z,10.40
2019-04-29T12:36:03.380Z,10.40
2019-04-29T12:38:14.732Z,10.80
2019-04-29T12:40:26.108Z,11.00
2019-04-29T12:42:40.298Z,11.30
2019-04-29T12:44:44.421Z,11.20
2019-04-29T12:46:37.520Z,11.00
2019-04-29T12:48:30.614Z,10.80
2019-04-29T12:50:23.231Z,10.70
2019-04-29T12:52:16.435Z,10.60
2019-04-29T12:54:09.218Z,10.40
2019-04-29T12:56:01.505Z,10.20
2019-04-29T12:57:54.476Z,10.00
2019-04-29T12:59:48.039Z,10.00
2019-04-29T13:01:57.686Z,10.00
2019-04-29T13:03:53.513Z,10.20
2019-04-29T13:06:09.570Z,10.20
2019-04-29T13:08:03.639Z,10.10
2019-04-29T13:10:01.985Z,9.90
2019-04-29T13:12:17.313Z,10.00
2019-04-29T13:13:56.730Z,10.10
2019-04-29T13:15:54.666Z,9.80
2019-04-29T13:18:03.152Z,9.40
2019-04-29T13:20:01.927Z,9.20
2019-04-29T13:21:52.152Z,9.20
2019-04-29T13:23:55.574Z,9.10
2019-04-29T13:25:40.119Z,9.20
2019-04-29T13:27:33.404Z,9.20
2019-04-29T13:29:31.858Z,9.10
2019-04-29T13:31:20.560Z,9.20
2019-04-29T13:33:16.651Z,9.60
2019-04-29T13:35:12.327Z,9.80
2019-04-29T13:37:08.085Z,9.70
2019-04-29T13:39:00.006Z,9.70
2019-04-29T13:41:12.135Z,9.80
2019-04-29T13:42:49.163Z,9.80
2019-04-29T13:44:50.308Z,9.90
2019-04-29T13:46:38.391Z,10.10
2019-04-29T13:48:55.132Z,9.80
2019-04-29T13:50:49.659Z,9.40
2019-04-29T13:52:42.791Z,9.40
2019-04-29T13:54:37.248Z,9.40
2019-04-29T13:56:39.460Z,9.30
2019-04-29T13:58:29.245Z,9.00
2019-04-29T14:00:39.238Z,9.10
2019-04-29T14:02:36.783Z,9.00
2019-04-29T14:04:33.530Z,9.00
2019-04-29T14:06:27.640Z,9.20
2019-04-29T14:08:24.240Z,9.30
2019-04-29T14:10:16.708Z,9.50
2019-04-29T14:12:46.377Z,9.70
2019-04-29T14:14:05.295Z,9.80
2019-04-29T14:15:58.748Z,9.80
2019-04-29T14:17:52.110Z,9.80
2019-04-29T14:19:45.316Z,9.80
2019-04-29T14:21:38.416Z,9.70
2019-04-29T14:23:31.381Z,9.60
2019-04-29T14:25:24.342Z,9.60
2019-04-29T14:27:25.260Z,9.70
2019-04-29T14:29:15.396Z,9.80
2019-04-29T14:31:08.478Z,9.70
2019-04-29T14:33:02.992Z,9.70
2019-04-29T14:35:00.749Z,9.70
2019-04-29T14:36:57.404Z,9.70
2019-04-29T14:38:48.995Z,9.70
2019-04-29T14:40:42.814Z,9.70
2019-04-29T14:42:57.604Z,9.70
2019-04-29T14:44:46.872Z,9.70
2019-04-29T14:46:50.525Z,9.60
2019-04-29T14:48:47.810Z,9.50
2019-04-29T14:50:42.221Z,9.50
2019-04-29T14:52:35.242Z,9.50
2019-04-29T14:54:28.286Z,9.40
2019-04-29T14:56:20.572Z,9.40
2019-04-29T14:58:13.517Z,9.40
2019-04-29T15:00:09.014Z,9.30
2019-04-29T15:02:04.162Z,9.40
2019-04-29T15:04:16.836Z,9.20
2019-04-29T15:05:56.851Z,9.20
2019-04-29T15:07:49.911Z,9.30
2019-04-29T15:09:56.370Z,9.20
2019-04-29T15:11:58.980Z,9.00
2019-04-29T15:13:54.410Z,9.00
2019-04-29T15:16:04.238Z,9.00
2019-04-29T15:17:51.460Z,9.00
2019-04-29T15:19:56.162Z,9.10
2019-04-29T15:21:51.655Z,9.20
2019-04-29T15:23:44.514Z,9.10
2019-04-29T15:25:37.681Z,9.00
2019-04-29T15:27:30.696Z,9.10
2019-04-29T15:29:23.736Z,9.00
2019-04-29T15:31:17.252Z,9.00
2019-04-29T15:33:10.632Z,8.90
2019-04-29T15:35:04.419Z,8.90
2019-04-29T15:36:57.788Z,9.00
2019-04-29T15:39:07.701Z,9.00
2019-04-29T15:40:45.972Z,8.90
2019-04-29T15:42:42.539Z,8.90
2019-04-29T15:44:32.695Z,8.80
2019-04-29T15:46:26.141Z,8.70
2019-04-29T15:48:20.338Z,8.60
2019-04-29T15:50:18.783Z,8.70
2019-04-29T15:52:08.712Z,8.50
2019-04-29T15:54:01.058Z,8.50
2019-04-29T15:56:06.097Z,8.60
2019-04-29T15:57:50.251Z,8.60
2019-04-29T15:59:49.001Z,8.50
2019-04-29T16:01:41.232Z,8.50
2019-04-29T16:03:37.200Z,8.40
2019-04-29T16:05:56.113Z,8.40
2019-04-29T16:07:38.235Z,8.30
2019-04-29T16:09:51.067Z,8.20
2019-04-29T16:11:41.137Z,8.10
2019-04-29T16:13:34.300Z,8.00
2019-04-29T16:15:27.065Z,8.00
2019-04-29T16:17:20.750Z,8.00
2019-04-29T16:19:14.258Z,8.00
2019-04-29T16:21:07.540Z,8.00
2019-04-29T16:23:02.204Z,7.90
2019-04-29T16:24:59.399Z,8.00
2019-04-29T16:26:53.593Z,8.00
2019-04-29T16:28:45.495Z,8.00
2019-04-29T16:30:38.504Z,7.90
2019-04-29T16:32:33.430Z,8.00
2019-04-29T16:34:26.677Z,8.00
2019-04-29T16:36:20.051Z,8.00
2019-04-29T16:38:13.824Z,8.00
2019-04-29T16:40:09.263Z,8.00
2019-04-29T16:42:02.535Z,8.00
2019-04-29T16:43:39.307Z,8.00
2019-04-29T16:45:14.385Z,7.90
2019-04-29T16:46:50.581Z,8.00
2019-04-29T16:48:25.895Z,8.00
2019-04-29T16:50:04.722Z,8.00
2019-04-29T16:51:37.127Z,8.00
2019-04-29T16:53:11.670Z,8.00
2019-04-29T16:54:46.187Z,7.90
2019-04-29T16:56:21.470Z,7.90
2019-04-29T16:57:59.812Z,8.00
2019-04-29T16:59:32.203Z,8.00
2019-04-29T17:01:06.918Z,7.90
2019-04-29T17:02:41.966Z,8.00
2019-04-29T17:04:17.327Z,8.00
2019-04-29T17:05:51.958Z,7.90
2019-04-29T17:07:26.451Z,7.90
2019-04-29T17:09:09.897Z,8.00
2019-04-29T17:10:48.102Z,7.90
2019-04-29T17:12:29.329Z,7.90
2019-04-29T17:14:03.521Z,7.80
2019-04-29T17:15:37.207Z,7.90
2019-04-29T17:17:14.045Z,7.90
2019-04-29T17:18:48.629Z,8.10
2019-04-29T17:20:23.174Z,8.00
2019-04-29T17:22:24.097Z,8.10
2019-04-29T17:23:34.162Z,8.00
2019-04-29T17:25:09.950Z,7.90
2019-04-29T17:27:04.187Z,7.90
2019-04-29T17:28:41.636Z,7.90
2019-04-29T17:30:24.098Z,7.80
2019-04-29T17:32:13.682Z,7.80
2019-04-29T17:33:51.134Z,7.80
2019-04-29T17:35:28.194Z,7.70
2019-04-29T17:37:04.885Z,7.70
2019-04-29T17:38:58.412Z,7.70
2019-04-29T17:40:51.734Z,7.70
2019-04-29T17:42:46.943Z,7.70
2019-04-29T17:44:46.547Z,7.70
2019-04-29T17:46:44.464Z,7.70
2019-04-29T17:48:54.667Z,7.70
2019-04-29T17:50:51.832Z,7.70
2019-04-29T17:52:45.118Z,7.70
2019-04-29T17:54:39.037Z,7.60
2019-04-29T17:56:39.656Z,7.50
2019-04-29T17:58:35.765Z,7.60
2019-04-29T18:00:41.397Z,7.50
2019-04-29T18:02:27.493Z,7.40
2019-04-29T18:04:06.675Z,7.50
2019-04-29T18:05:54.947Z,7.40
2019-04-29T18:07:29.091Z,7.30
2019-04-29T18:09:25.953Z,7.40
2019-04-29T18:11:04.755Z,7.30
2019-04-29T18:12:41.074Z,7.40
2019-04-29T18:14:15.071Z,7.40
2019-04-29T18:16:00.903Z,7.40
2019-04-29T18:17:31.103Z,7.30
2019-04-29T18:19:05.768Z,7.30
2019-04-29T18:20:47.149Z,7.30
2019-04-29T18:22:25.832Z,7.30
2019-04-29T18:24:08.076Z,7.40
2019-04-29T18:25:47.299Z,7.40
2019-04-29T18:27:29.876Z,7.30
2019-04-29T18:29:23.355Z,7.40
2019-04-29T18:31:16.599Z,7.40
2019-04-29T18:33:10.114Z,7.40
2019-04-29T18:34:45.355Z,7.40
2019-04-29T18:36:24.182Z,7.30
2019-04-29T18:37:57.437Z,7.30
2019-04-29T18:39:33.522Z,7.30
2019-04-29T18:41:08.756Z,7.30
2019-04-29T18:42:48.453Z,7.30
2019-04-29T18:44:20.682Z,7.30
2019-04-29T18:45:58.813Z,7.40
2019-04-29T18:47:35.469Z,7.30
2019-04-29T18:49:09.338Z,7.40
2019-04-29T18:50:44.854Z,7.30
2019-04-29T18:52:25.741Z,7.20
2019-04-29T18:53:58.196Z,7.30
2019-04-29T18:55:35.228Z,7.40
2019-04-29T18:57:09.769Z,7.40
2019-04-29T18:58:46.752Z,7.40
2019-04-29T19:00:22.098Z,7.40
2019-04-29T19:02:01.045Z,7.30
2019-04-29T19:03:45.780Z,7.30
2019-04-29T19:05:32.337Z,7.40
2019-04-29T19:07:05.329Z,7.20
2019-04-29T19:08:41.417Z,7.30
2019-04-29T19:10:18.707Z,7.20
2019-04-29T19:11:55.336Z,7.20
2019-04-29T19:13:31.475Z,7.10
2019-04-29T19:15:11.559Z,7.10
2019-04-29T19:16:45.951Z,7.10
2019-04-29T19:18:21.742Z,7.10
2019-04-29T19:19:58.000Z,7.10
2019-04-29T19:21:34.197Z,7.10
2019-04-29T19:23:10.840Z,7.10
2019-04-29T19:24:48.243Z,7.10
2019-04-29T19:26:27.433Z,7.20
2019-04-29T19:28:11.903Z,7.10
2019-04-29T19:29:43.374Z,7.10
2019-04-29T19:31:18.224Z,7.20
2019-04-29T19:33:00.387Z,7.10
2019-04-29T19:34:42.237Z,7.20
2019-04-29T19:36:17.407Z,7.20
2019-04-29T19:37:47.631Z,7.20
2019-04-29T19:39:25.483Z,7.10
2019-04-29T19:41:01.187Z,7.10
2019-04-29T19:42:39.830Z,7.10
2019-04-29T19:44:15.550Z,7.10
2019-04-29T19:45:51.569Z,7.10
2019-04-29T19:47:28.076Z,7.10
2019-04-29T19:49:08.196Z,7.00
2019-04-29T19:50:42.191Z,7.00
2019-04-29T19:52:26.682Z,7.00
2019-04-29T19:53:55.914Z,7.00
2019-04-29T19:55:33.324Z,7.00
2019-04-29T19:57:08.247Z,7.00
2019-04-29T19:58:43.607Z,7.00
2019-04-29T20:00:28.437Z,7.00
2019-04-29T20:02:05.480Z,7.00
2019-04-29T20:03:59.037Z,7.00
2019-04-29T20:06:08.436Z,7.10
2019-04-29T20:07:58.543Z,7.10
2019-04-29T20:10:00.085Z,7.10
2019-04-29T20:11:49.208Z,7.10
2019-04-29T20:13:52.039Z,7.10
2019-04-29T20:15:49.763Z,7.10
2019-04-29T20:18:01.851Z,7.00
2019-04-29T20:20:00.273Z,7.00
2019-04-29T20:21:52.904Z,7.00
2019-04-29T20:23:47.317Z,6.90
2019-04-29T20:25:41.057Z,6.90
2019-04-29T20:27:35.667Z,6.90
2019-04-29T20:29:33.975Z,7.00
2019-04-29T20:31:26.058Z,6.90
2019-04-29T20:33:19.386Z,6.90
2019-04-29T20:35:13.026Z,6.80
2019-04-29T20:37:10.705Z,6.80
2019-04-29T20:39:01.718Z,6.80
2019-04-29T20:40:56.915Z,6.80
2019-04-29T20:42:49.500Z,6.80
2019-04-29T20:44:47.651Z,6.90
2019-04-29T20:46:44.933Z,6.90
2019-04-29T20:48:31.782Z,7.00
2019-04-29T20:50:26.203Z,6.90
2019-04-29T20:52:32.954Z,7.00
2019-04-29T20:54:30.491Z,6.90
2019-04-29T20:56:28.353Z,6.90
2019-04-29T20:58:18.850Z,6.80
2019-04-29T21:00:15.120Z,6.80
2019-04-29T21:02:12.668Z,6.90
2019-04-29T21:03:51.145Z,6.90
2019-04-29T21:05:24.518Z,7.00
2019-04-29T21:07:02.373Z,7.00
2019-04-29T21:08:34.963Z,7.00
2019-04-29T21:10:10.096Z,7.10
2019-04-29T21:11:46.156Z,7.00
2019-04-29T21:13:37.460Z,7.00
2019-04-29T21:15:16.911Z,7.00
2019-04-29T21:16:57.303Z,7.00
2019-04-29T21:18:29.840Z,7.00
2019-04-29T21:20:05.937Z,7.00
2019-04-29T21:21:41.922Z,7.00
2019-04-29T21:23:16.778Z,7.00
2019-04-29T21:24:53.776Z,7.00
2019-04-29T21:26:27.463Z,6.90
2019-04-29T21:28:02.463Z,6.90
2019-04-29T21:29:37.392Z,6.90
2019-04-29T21:31:18.619Z,6.90
2019-04-29T21:32:48.084Z,6.90
2019-04-29T21:34:25.558Z,7.00
2019-04-29T21:36:20.613Z,7.00
2019-04-29T21:38:02.519Z,7.00
2019-04-29T21:39:55.116Z,7.00
2019-04-29T21:41:45.859Z,7.00
2019-04-29T21:43:22.384Z,7.00
2019-04-29T21:44:58.625Z,6.90
2019-04-29T21:46:35.080Z,6.90
2019-04-29T21:48:33.429Z,6.90
2019-04-29T21:50:27.144Z,6.90
2019-04-29T21:52:19.744Z,6.90
2019-04-29T21:54:15.583Z,6.80
2019-04-29T21:56:09.465Z,6.80
2019-04-29T21:58:02.943Z,6.80
2019-04-29T21:59:55.592Z,6.80
2019-04-29T22:01:48.719Z,6.80
2019-04-29T22:03:42.337Z,6.80
2019-04-29T22:05:35.981Z,6.70
2019-04-29T22:07:29.053Z,6.60
2019-04-29T22:09:33.531Z,6.60
2019-04-29T22:11:17.526Z,6.70
2019-04-29T22:13:11.355Z,6.70
2019-04-29T22:15:07.727Z,6.70
2019-04-29T22:17:01.091Z,6.70
2019-04-29T22:18:55.375Z,6.70
2019-04-29T22:20:48.949Z,6.80
2019-04-29T22:22:41.904Z,6.80
2019-04-29T22:24:17.599Z,6.80
2019-04-29T22:26:09.960Z,6.80
2019-04-29T22:28:02.655Z,6.80
2019-04-29T22:29:55.871Z,6.80
2019-04-29T22:31:48.946Z,6.80
2019-04-29T22:33:42.376Z,6.80
2019-04-29T22:35:37.296Z,6.80
2019-04-29T22:37:34.635Z,6.70
2019-04-29T22:39:26.800Z,6.60
2019-04-29T22:41:37.222Z,6.70
2019-04-29T22:43:44.655Z,6.80
2019-04-29T22:45:38.521Z,6.80
2019-04-29T22:47:31.750Z,6.80
2019-04-29T22:49:29.232Z,6.70
2019-04-29T22:51:19.197Z,6.70
2019-04-29T22:53:14.820Z,6.70
2019-04-29T22:55:08.372Z,6.60
2019-04-29T22:57:01.375Z,6.60
2019-04-29T22:58:55.880Z,6.60
2019-04-29T23:00:49.574Z,6.60
2019-04-29T23:02:42.618Z,6.60
2019-04-29T23:04:35.879Z,6.60
2019-04-29T23:06:28.821Z,6.60
2019-04-29T23:08:21.162Z,6.60
2019-04-29T23:10:18.143Z,6.60
2019-04-29T23:12:09.755Z,6.60
2019-04-29T23:14:06.689Z,6.70
2019-04-29T23:16:01.018Z,6.70
2019-04-29T23:17:52.466Z,6.70
2019-04-29T23:19:50.307Z,6.60
2019-04-29T23:21:47.204Z,6.50
2019-04-29T23:23:50.628Z,6.50
2019-04-29T23:25:35.787Z,6.50
2019-04-29T23:27:15.417Z,6.50
2019-04-29T23:28:47.663Z,6.50
2019-04-29T23:30:23.757Z,6.50
2019-04-29T23:31:59.733Z,6.50
2019-04-29T23:33:36.013Z,6.50
2019-04-29T23:35:10.799Z,6.50
2019-04-29T23:36:48.839Z,6.50
2019-04-29T23:38:21.635Z,6.50
2019-04-29T23:39:56.153Z,6.40
2019-04-29T23:41:33.061Z,6.50
2019-04-29T23:43:07.130Z,6.40
2019-04-29T23:44:42.372Z,6.40
2019-04-29T23:46:17.732Z,6.40
2019-04-29T23:47:52.179Z,6.50
2019-04-29T23:49:26.612Z,6.50
2019-04-29T23:51:01.076Z,6.40
2019-04-29T23:52:35.984Z,6.40
2019-04-29T23:54:10.959Z,6.50
2019-04-29T23:56:09.386Z,6.50
2019-04-29T23:58:03.787Z,6.40
